sensor_id;sensor_type;location;lat;lon;timestamp;pressure;altitude;pressure_sealevel;temperature;humidity
72157;BME280;60035;52.122;5.406;2023-04-07T00:00:29;101635.94;;;8.22;100.00
72157;BME280;60035;52.122;5.406;2023-04-07T00:02:56;101636.81;;;8.20;100.00
72157;BME280;60035;52.122;5.406;2023-04-07T00:05:23;101641.06;;;8.19;100.00
72157;BME280;60035;52.122;5.406;2023-04-07T00:07:49;101640.22;;;8.17;100.00
72157;BME280;60035;52.122;5.406;2023-04-07T00:10:23;101640.19;;;8.18;100.00
72157;BME280;60035;52.122;5.406;2023-04-07T00:12:51;101635.94;;;8.17;100.00
72157;BME280;60035;52.122;5.406;2023-04-07T00:15:18;101640.22;;;8.17;100.00
72157;BME280;60035;52.122;5.406;2023-04-07T00:17:44;101636.81;;;8.18;100.00
72157;BME280;60035;52.122;5.406;2023-04-07T00:20:11;101638.50;;;8.16;100.00
72157;BME280;60035;52.122;5.406;2023-04-07T00:22:37;101640.22;;;8.15;100.00
72157;BME280;60035;52.122;5.406;2023-04-07T00:25:05;101640.25;;;8.14;100.00
72157;BME280;60035;52.122;5.406;2023-04-07T00:27:32;101644.47;;;8.13;100.00
72157;BME280;60035;52.122;5.406;2023-04-07T00:29:58;101641.97;;;8.10;100.00
72157;BME280;60035;52.122;5.406;2023-04-07T00:32:25;101649.63;;;8.10;100.00
72157;BME280;60035;52.122;5.406;2023-04-07T00:34:51;101640.28;;;8.06;100.00
72157;BME280;60035;52.122;5.406;2023-04-07T00:37:18;101643.69;;;8.05;100.00
72157;BME280;60035;52.122;5.406;2023-04-07T00:39:44;101645.41;;;8.03;100.00
72157;BME280;60035;52.122;5.406;2023-04-07T00:42:12;101649.66;;;8.03;100.00
72157;BME280;60035;52.122;5.406;2023-04-07T00:44:38;101655.63;;;8.03;100.00
72157;BME280;60035;52.122;5.406;2023-04-07T00:47:05;101650.53;;;8.03;100.00
72157;BME280;60035;52.122;5.406;2023-04-07T00:49:31;101648.81;;;8.02;100.00
72157;BME280;60035;52.122;5.406;2023-04-07T00:51:58;101645.41;;;8.03;100.00
72157;BME280;60035;52.122;5.406;2023-04-07T00:54:25;101647.97;;;8.03;100.00
72157;BME280;60035;52.122;5.406;2023-04-07T00:56:52;101649.66;;;8.03;100.00
72157;BME280;60035;52.122;5.406;2023-04-07T00:59:19;101652.22;;;8.01;100.00
72157;BME280;60035;52.122;5.406;2023-04-07T01:02:03;101653.06;;;8.01;100.00
72157;BME280;60035;52.122;5.406;2023-04-07T01:04:38;101647.13;;;8.01;100.00
72157;BME280;60035;52.122;5.406;2023-04-07T01:07:12;101647.97;;;8.00;100.00
72157;BME280;60035;52.122;5.406;2023-04-07T01:09:45;101648.81;;;7.99;100.00
72157;BME280;60035;52.122;5.406;2023-04-07T01:12:35;101648.81;;;7.99;100.00
72157;BME280;60035;52.122;5.406;2023-04-07T01:15:10;101647.16;;;7.98;100.00
72157;BME280;60035;52.122;5.406;2023-04-07T01:17:48;101644.59;;;7.98;100.00
72157;BME280;60035;52.122;5.406;2023-04-07T01:20:18;101647.16;;;7.98;100.00
72157;BME280;60035;52.122;5.406;2023-04-07T01:22:51;101653.91;;;7.99;100.00
72157;BME280;60035;52.122;5.406;2023-04-07T01:25:41;101651.38;;;8.00;100.00
72157;BME280;60035;52.122;5.406;2023-04-07T01:28:43;101645.41;;;8.00;100.00
72157;BME280;60035;52.122;5.406;2023-04-07T01:31:15;101648.81;;;7.99;100.00
72157;BME280;60035;52.122;5.406;2023-04-07T01:33:44;101648.00;;;7.97;100.00
72157;BME280;60035;52.122;5.406;2023-04-07T01:36:11;101659.03;;;7.96;100.00
72157;BME280;60035;52.122;5.406;2023-04-07T01:38:38;101649.69;;;7.95;100.00
72157;BME280;60035;52.122;5.406;2023-04-07T01:41:06;101649.69;;;7.95;100.00
72157;BME280;60035;52.122;5.406;2023-04-07T01:43:36;101653.94;;;7.97;100.00
72157;BME280;60035;52.122;5.406;2023-04-07T01:46:04;101652.25;;;7.95;100.00
72157;BME280;60035;52.122;5.406;2023-04-07T01:48:31;101653.94;;;7.96;100.00
72157;BME280;60035;52.122;5.406;2023-04-07T01:50:58;101645.47;;;7.95;100.00
72157;BME280;60035;52.122;5.406;2023-04-07T01:53:26;101642.03;;;7.95;100.00
72157;BME280;60035;52.122;5.406;2023-04-07T01:55:53;101648.00;;;7.95;100.00
72157;BME280;60035;52.122;5.406;2023-04-07T01:58:19;101652.25;;;7.95;100.00
72157;BME280;60035;52.122;5.406;2023-04-07T02:00:47;101643.75;;;7.94;100.00
72157;BME280;60035;52.122;5.406;2023-04-07T02:03:28;101644.59;;;7.95;100.00
72157;BME280;60035;52.122;5.406;2023-04-07T02:06:02;101642.91;;;7.95;100.00
72157;BME280;60035;52.122;5.406;2023-04-07T02:08:29;101642.06;;;7.96;100.00
72157;BME280;60035;52.122;5.406;2023-04-07T02:10:59;101644.63;;;7.96;100.00
72157;BME280;60035;52.122;5.406;2023-04-07T02:13:29;101647.97;;;7.98;100.00
72157;BME280;60035;52.122;5.406;2023-04-07T02:15:56;101640.34;;;7.98;100.00
72157;BME280;60035;52.122;5.406;2023-04-07T02:18:25;101642.88;;;7.98;100.00
72157;BME280;60035;52.122;5.406;2023-04-07T02:20:53;101649.69;;;7.99;100.00
72157;BME280;60035;52.122;5.406;2023-04-07T02:23:20;101648.81;;;8.02;100.00
72157;BME280;60035;52.122;5.406;2023-04-07T02:25:47;101655.59;;;8.01;100.00
72157;BME280;60035;52.122;5.406;2023-04-07T02:28:14;101659.88;;;8.01;100.00
72157;BME280;60035;52.122;5.406;2023-04-07T02:30:40;101654.75;;;8.03;100.00
72157;BME280;60035;52.122;5.406;2023-04-07T02:33:07;101648.81;;;8.04;100.00
72157;BME280;60035;52.122;5.406;2023-04-07T02:35:33;101657.28;;;8.04;100.00
72157;BME280;60035;52.122;5.406;2023-04-07T02:38:00;101648.81;;;8.04;100.00
72157;BME280;60035;52.122;5.406;2023-04-07T02:40:26;101653.91;;;8.05;100.00
72157;BME280;60035;52.122;5.406;2023-04-07T02:42:53;101647.97;;;8.03;100.00
72157;BME280;60035;52.122;5.406;2023-04-07T02:45:19;101644.56;;;8.03;100.00
72157;BME280;60035;52.122;5.406;2023-04-07T02:47:46;101647.97;;;8.03;100.00
72157;BME280;60035;52.122;5.406;2023-04-07T02:50:12;101648.81;;;8.02;100.00
72157;BME280;60035;52.122;5.406;2023-04-07T02:52:39;101655.59;;;8.01;100.00
72157;BME280;60035;52.122;5.406;2023-04-07T02:55:06;101656.47;;;8.00;100.00
72157;BME280;60035;52.122;5.406;2023-04-07T02:57:33;101659.03;;;7.99;100.00
72157;BME280;60035;52.122;5.406;2023-04-07T02:59:59;101652.22;;;7.99;100.00
72157;BME280;60035;52.122;5.406;2023-04-07T03:02:26;101659.03;;;7.99;100.00
72157;BME280;60035;52.122;5.406;2023-04-07T03:04:52;101661.59;;;8.00;100.00
72157;BME280;60035;52.122;5.406;2023-04-07T03:07:19;101655.59;;;8.01;100.00
72157;BME280;60035;52.122;5.406;2023-04-07T03:09:45;101659.84;;;8.03;100.00
72157;BME280;60035;52.122;5.406;2023-04-07T03:12:12;101660.72;;;8.05;100.00
72157;BME280;60035;52.122;5.406;2023-04-07T03:14:39;101663.28;;;8.03;100.00
72157;BME280;60035;52.122;5.406;2023-04-07T03:17:05;101662.41;;;8.01;100.00
72157;BME280;60035;52.122;5.406;2023-04-07T03:19:32;101658.16;;;8.01;100.00
72157;BME280;60035;52.122;5.406;2023-04-07T03:21:58;101660.72;;;8.01;100.00
72157;BME280;60035;52.122;5.406;2023-04-07T03:24:25;101659.03;;;8.00;100.00
72157;BME280;60035;52.122;5.406;2023-04-07T03:26:52;101668.38;;;7.98;100.00
72157;BME280;60035;52.122;5.406;2023-04-07T03:29:18;101659.03;;;7.96;100.00
72157;BME280;60035;52.122;5.406;2023-04-07T03:31:45;101656.47;;;7.97;100.00
72157;BME280;60035;52.122;5.406;2023-04-07T03:34:12;101663.28;;;7.98;100.00
72157;BME280;60035;52.122;5.406;2023-04-07T03:36:39;101657.34;;;7.99;100.00
72157;BME280;60035;52.122;5.406;2023-04-07T03:39:05;101664.13;;;7.97;100.00
72157;BME280;60035;52.122;5.406;2023-04-07T03:41:32;101661.56;;;7.99;100.00
72157;BME280;60035;52.122;5.406;2023-04-07T03:43:58;101665.00;;;7.99;100.00
72157;BME280;60035;52.122;5.406;2023-04-07T03:46:25;101665.84;;;7.97;100.00
72157;BME280;60035;52.122;5.406;2023-04-07T03:48:52;101668.38;;;7.98;100.00
72157;BME280;60035;52.122;5.406;2023-04-07T03:51:19;101664.13;;;7.99;100.00
72157;BME280;60035;52.122;5.406;2023-04-07T03:53:46;101668.38;;;7.98;100.00
72157;BME280;60035;52.122;5.406;2023-04-07T03:56:12;101659.91;;;7.96;100.00
72157;BME280;60035;52.122;5.406;2023-04-07T03:58:39;101666.69;;;7.96;100.00
72157;BME280;60035;52.122;5.406;2023-04-07T04:01:08;101662.44;;;7.95;100.00
72157;BME280;60035;52.122;5.406;2023-04-07T04:03:34;101664.16;;;7.96;100.00
72157;BME280;60035;52.122;5.406;2023-04-07T04:06:01;101662.47;;;7.96;100.00
72157;BME280;60035;52.122;5.406;2023-04-07T04:08:28;101665.84;;;7.97;100.00
72157;BME280;60035;52.122;5.406;2023-04-07T04:10:54;101668.41;;;7.95;100.00
72157;BME280;60035;52.122;5.406;2023-04-07T04:13:21;101669.25;;;7.96;100.00
72157;BME280;60035;52.122;5.406;2023-04-07T04:15:47;101669.22;;;7.97;100.00
72157;BME280;60035;52.122;5.406;2023-04-07T04:18:14;101672.66;;;7.95;100.00
72157;BME280;60035;52.122;5.406;2023-04-07T04:20:41;101671.78;;;7.96;100.00
72157;BME280;60035;52.122;5.406;2023-04-07T04:23:08;101677.75;;;7.98;100.00
72157;BME280;60035;52.122;5.406;2023-04-07T04:25:34;101679.44;;;7.97;100.00
72157;BME280;60035;52.122;5.406;2023-04-07T04:28:01;101674.34;;;7.96;100.00
72157;BME280;60035;52.122;5.406;2023-04-07T04:30:27;101681.97;;;7.97;100.00
72157;BME280;60035;52.122;5.406;2023-04-07T04:32:54;101683.69;;;7.98;100.00
72157;BME280;60035;52.122;5.406;2023-04-07T04:35:21;101685.41;;;7.98;100.00
72157;BME280;60035;52.122;5.406;2023-04-07T04:37:47;101686.22;;;8.00;100.00
72157;BME280;60035;52.122;5.406;2023-04-07T04:40:14;101688.75;;;8.01;100.00
72157;BME280;60035;52.122;5.406;2023-04-07T04:42:40;101693.84;;;8.01;100.00
72157;BME280;60035;52.122;5.406;2023-04-07T04:45:07;101694.75;;;8.00;100.00
72157;BME280;60035;52.122;5.406;2023-04-07T04:47:34;101704.06;;;8.00;100.00
72157;BME280;60035;52.122;5.406;2023-04-07T04:50:00;101706.63;;;8.00;100.00
72157;BME280;60035;52.122;5.406;2023-04-07T04:52:27;101704.94;;;7.99;100.00
72157;BME280;60035;52.122;5.406;2023-04-07T04:54:53;101716.84;;;7.98;100.00
72157;BME280;60035;52.122;5.406;2023-04-07T04:57:20;101713.47;;;7.98;100.00
72157;BME280;60035;52.122;5.406;2023-04-07T04:59:46;101716.81;;;8.00;100.00
72157;BME280;60035;52.122;5.406;2023-04-07T05:02:13;101708.34;;;7.99;100.00
72157;BME280;60035;52.122;5.406;2023-04-07T05:04:40;101715.13;;;7.97;100.00
72157;BME280;60035;52.122;5.406;2023-04-07T05:07:06;101719.41;;;7.97;100.00
72157;BME280;60035;52.122;5.406;2023-04-07T05:09:33;101713.44;;;7.95;100.00
72157;BME280;60035;52.122;5.406;2023-04-07T05:11:59;101716.88;;;7.94;100.00
72157;BME280;60035;52.122;5.406;2023-04-07T05:14:27;101714.31;;;7.95;100.00
72157;BME280;60035;52.122;5.406;2023-04-07T05:16:54;101716.88;;;7.95;100.00
72157;BME280;60035;52.122;5.406;2023-04-07T05:19:20;101719.41;;;7.95;100.00
72157;BME280;60035;52.122;5.406;2023-04-07T05:21:47;101719.41;;;7.97;100.00
72157;BME280;60035;52.122;5.406;2023-04-07T05:24:13;101726.22;;;7.98;100.00
72157;BME280;60035;52.122;5.406;2023-04-07T05:26:39;101722.78;;;7.97;100.00
72157;BME280;60035;52.122;5.406;2023-04-07T05:29:06;101723.66;;;7.96;100.00
72157;BME280;60035;52.122;5.406;2023-04-07T05:31:32;101724.50;;;7.95;100.00
72157;BME280;60035;52.122;5.406;2023-04-07T05:34:02;101730.47;;;7.96;100.00
72157;BME280;60035;52.122;5.406;2023-04-07T05:36:28;101726.22;;;7.96;100.00
72157;BME280;60035;52.122;5.406;2023-04-07T05:38:56;101731.31;;;7.98;100.00
72157;BME280;60035;52.122;5.406;2023-04-07T05:41:23;101732.97;;;7.99;100.00
72157;BME280;60035;52.122;5.406;2023-04-07T05:43:49;101744.91;;;7.98;100.00
72157;BME280;60035;52.122;5.406;2023-04-07T05:46:16;101734.72;;;7.97;100.00
72157;BME280;60035;52.122;5.406;2023-04-07T05:48:43;101739.78;;;7.98;100.00
72157;BME280;60035;52.122;5.406;2023-04-07T05:51:09;101746.59;;;7.99;100.00
72157;BME280;60035;52.122;5.406;2023-04-07T05:53:36;101741.47;;;8.01;100.00
72157;BME280;60035;52.122;5.406;2023-04-07T05:56:02;101738.09;;;8.02;100.00
72157;BME280;60035;52.122;5.406;2023-04-07T05:58:29;101738.94;;;8.01;100.00
72157;BME280;60035;52.122;5.406;2023-04-07T06:00:55;101745.75;;;8.00;100.00
72157;BME280;60035;52.122;5.406;2023-04-07T06:03:22;101738.09;;;8.00;100.00
72157;BME280;60035;52.122;5.406;2023-04-07T06:05:48;101742.34;;;8.03;100.00
72157;BME280;60035;52.122;5.406;2023-04-07T06:08:15;101758.50;;;8.02;100.00
72157;BME280;60035;52.122;5.406;2023-04-07T06:10:42;101755.94;;;8.02;100.00
72157;BME280;60035;52.122;5.406;2023-04-07T06:13:09;101760.19;;;8.01;100.00
72157;BME280;60035;52.122;5.406;2023-04-07T06:15:36;101761.06;;;8.00;100.00
72157;BME280;60035;52.122;5.406;2023-04-07T06:18:02;101754.25;;;8.01;100.00
72157;BME280;60035;52.122;5.406;2023-04-07T06:20:29;101761.06;;;8.00;100.00
72157;BME280;60035;52.122;5.406;2023-04-07T06:22:55;101760.19;;;8.01;100.00
72157;BME280;60035;52.122;5.406;2023-04-07T06:25:21;101760.19;;;8.01;100.00
72157;BME280;60035;52.122;5.406;2023-04-07T06:27:48;101768.72;;;8.00;100.00
72157;BME280;60035;52.122;5.406;2023-04-07T06:30:15;101771.25;;;8.02;100.00
72157;BME280;60035;52.122;5.406;2023-04-07T06:32:41;101778.88;;;8.04;100.00
72157;BME280;60035;52.122;5.406;2023-04-07T06:35:08;101772.06;;;8.04;100.00
72157;BME280;60035;52.122;5.406;2023-04-07T06:37:34;101767.84;;;8.05;100.00
72157;BME280;60035;52.122;5.406;2023-04-07T06:40:01;101770.38;;;8.06;100.00
72157;BME280;60035;52.122;5.406;2023-04-07T06:42:28;101774.63;;;8.09;100.00
72157;BME280;60035;52.122;5.406;2023-04-07T06:44:55;101771.22;;;8.10;100.00
72157;BME280;60035;52.122;5.406;2023-04-07T06:47:22;101767.81;;;8.09;100.00
72157;BME280;60035;52.122;5.406;2023-04-07T06:49:49;101777.16;;;8.12;100.00
72157;BME280;60035;52.122;5.406;2023-04-07T06:52:16;101779.69;;;8.16;100.00
72157;BME280;60035;52.122;5.406;2023-04-07T06:54:42;101794.13;;;8.22;100.00
72157;BME280;60035;52.122;5.406;2023-04-07T06:57:09;101798.38;;;8.25;100.00
72157;BME280;60035;52.122;5.406;2023-04-07T06:59:37;101789.84;;;8.26;100.00
72157;BME280;60035;52.122;5.406;2023-04-07T07:02:04;101795.78;;;8.28;100.00
72157;BME280;60035;52.122;5.406;2023-04-07T07:04:33;101797.47;;;8.32;100.00
72157;BME280;60035;52.122;5.406;2023-04-07T07:07:00;101792.31;;;8.40;100.00
72157;BME280;60035;52.122;5.406;2023-04-07T07:09:26;101795.69;;;8.45;100.00
72157;BME280;60035;52.122;5.406;2023-04-07T07:11:53;101797.41;;;8.52;100.00
72157;BME280;60035;52.122;5.406;2023-04-07T07:14:19;101799.06;;;8.58;100.00
72157;BME280;60035;52.122;5.406;2023-04-07T07:16:46;101800.75;;;8.62;100.00
72157;BME280;60035;52.122;5.406;2023-04-07T07:19:12;101802.44;;;8.66;100.00
72157;BME280;60035;52.122;5.406;2023-04-07T07:21:40;101798.16;;;8.65;100.00
72157;BME280;60035;52.122;5.406;2023-04-07T07:24:06;101800.72;;;8.70;100.00
72157;BME280;60035;52.122;5.406;2023-04-07T07:26:33;101814.31;;;8.72;100.00
72157;BME280;60035;52.122;5.406;2023-04-07T07:28:59;101810.06;;;8.72;100.00
72157;BME280;60035;52.122;5.406;2023-04-07T07:31:26;101815.16;;;8.72;100.00
72157;BME280;60035;52.122;5.406;2023-04-07T07:33:52;101818.53;;;8.74;100.00
72157;BME280;60035;52.122;5.406;2023-04-07T07:36:19;101818.56;;;8.76;100.00
72157;BME280;60035;52.122;5.406;2023-04-07T07:38:46;101818.53;;;8.79;100.00
72157;BME280;60035;52.122;5.406;2023-04-07T07:41:12;101823.66;;;8.77;100.00
72157;BME280;60035;52.122;5.406;2023-04-07T07:43:38;101827.03;;;8.79;100.00
72157;BME280;60035;52.122;5.406;2023-04-07T07:46:06;101828.69;;;8.83;100.00
72157;BME280;60035;52.122;5.406;2023-04-07T07:48:32;101828.72;;;8.82;100.00
72157;BME280;60035;52.122;5.406;2023-04-07T07:50:59;101832.13;;;8.84;100.00
72157;BME280;60035;52.122;5.406;2023-04-07T07:53:25;101837.22;;;8.86;100.00
72157;BME280;60035;52.122;5.406;2023-04-07T07:55:52;101834.63;;;8.89;100.00
72157;BME280;60035;52.122;5.406;2023-04-07T07:58:21;101833.75;;;8.94;100.00
72157;BME280;60035;52.122;5.406;2023-04-07T08:00:47;101842.22;;;8.99;100.00
72157;BME280;60035;52.122;5.406;2023-04-07T08:03:15;101842.22;;;8.98;100.00
72157;BME280;60035;52.122;5.406;2023-04-07T08:05:42;101841.41;;;8.97;100.00
72157;BME280;60035;52.122;5.406;2023-04-07T08:08:09;101848.22;;;8.98;100.00
72157;BME280;60035;52.122;5.406;2023-04-07T08:10:36;101855.00;;;9.03;100.00
72157;BME280;60035;52.122;5.406;2023-04-07T08:13:02;101853.25;;;9.08;100.00
72157;BME280;60035;52.122;5.406;2023-04-07T08:15:30;101850.66;;;9.11;100.00
72157;BME280;60035;52.122;5.406;2023-04-07T08:17:57;101855.72;;;9.19;100.00
72157;BME280;60035;52.122;5.406;2023-04-07T08:20:26;101858.25;;;9.22;100.00
72157;BME280;60035;52.122;5.406;2023-04-07T08:22:52;101863.31;;;9.28;100.00
72157;BME280;60035;52.122;5.406;2023-04-07T08:25:19;101864.09;;;9.36;100.00
72157;BME280;60035;52.122;5.406;2023-04-07T08:27:46;101864.06;;;9.44;100.00
72157;BME280;60035;52.122;5.406;2023-04-07T08:30:12;101862.31;;;9.49;100.00
72157;BME280;60035;52.122;5.406;2023-04-07T08:32:41;101863.91;;;9.61;100.00
72157;BME280;60035;52.122;5.406;2023-04-07T08:35:08;101866.34;;;9.73;100.00
72157;BME280;60035;52.122;5.406;2023-04-07T08:37:36;101862.91;;;9.76;100.00
72157;BME280;60035;52.122;5.406;2023-04-07T08:40:04;101865.53;;;9.68;100.00
72157;BME280;60035;52.122;5.406;2023-04-07T08:42:32;101864.66;;;9.71;100.00
72157;BME280;60035;52.122;5.406;2023-04-07T08:45:04;101856.09;;;9.78;100.00
72157;BME280;60035;52.122;5.406;2023-04-07T08:47:32;101873.03;;;9.90;100.00
72157;BME280;60035;52.122;5.406;2023-04-07T08:50:01;101873.81;;;9.95;100.00
72157;BME280;60035;52.122;5.406;2023-04-07T08:55:00;101874.69;;;9.91;100.00
72157;BME280;60035;52.122;5.406;2023-04-07T08:57:29;101877.16;;;10.00;100.00
72157;BME280;60035;52.122;5.406;2023-04-07T08:59:59;101883.16;;;10.00;100.00
72157;BME280;60035;52.122;5.406;2023-04-07T09:02:37;101887.38;;;10.03;100.00
72157;BME280;60035;52.122;5.406;2023-04-07T09:05:06;101888.31;;;9.94;100.00
72157;BME280;60035;52.122;5.406;2023-04-07T09:07:36;101894.31;;;9.92;100.00
72157;BME280;60035;52.122;5.406;2023-04-07T09:10:04;101891.84;;;9.82;100.00
72157;BME280;60035;52.122;5.406;2023-04-07T09:12:31;101899.53;;;9.79;100.00
72157;BME280;60035;52.122;5.406;2023-04-07T09:14:58;101897.00;;;9.79;100.00
72157;BME280;60035;52.122;5.406;2023-04-07T09:17:27;101905.41;;;9.91;100.00
72157;BME280;60035;52.122;5.406;2023-04-07T09:19:58;101898.53;;;9.94;100.00
72157;BME280;60035;52.122;5.406;2023-04-07T09:22:39;101907.06;;;9.98;100.00
72157;BME280;60035;52.122;5.406;2023-04-07T09:25:27;101901.91;;;9.99;100.00
72157;BME280;60035;52.122;5.406;2023-04-07T09:28:03;101905.31;;;10.00;100.00
72157;BME280;60035;52.122;5.406;2023-04-07T09:30:32;101900.19;;;10.02;100.00
72157;BME280;60035;52.122;5.406;2023-04-07T09:33:00;101900.13;;;10.06;100.00
72157;BME280;60035;52.122;5.406;2023-04-07T09:35:26;101906.13;;;10.05;100.00
72157;BME280;60035;52.122;5.406;2023-04-07T09:38:05;101902.75;;;10.02;100.00
72157;BME280;60035;52.122;5.406;2023-04-07T09:40:32;101908.66;;;10.07;100.00
72157;BME280;60035;52.122;5.406;2023-04-07T09:43:03;101913.78;;;10.08;100.00
72157;BME280;60035;52.122;5.406;2023-04-07T09:45:30;101909.41;;;10.16;100.00
72157;BME280;60035;52.122;5.406;2023-04-07T09:48:24;101910.19;;;10.23;100.00
72157;BME280;60035;52.122;5.406;2023-04-07T09:50:50;101910.16;;;10.26;100.00
72157;BME280;60035;52.122;5.406;2023-04-07T09:53:17;101903.28;;;10.36;100.00
72157;BME280;60035;52.122;5.406;2023-04-07T09:55:48;101917.84;;;10.26;100.00
72157;BME280;60035;52.122;5.406;2023-04-07T09:58:15;101912.78;;;10.22;100.00
72157;BME280;60035;52.122;5.406;2023-04-07T10:00:42;101906.00;;;10.14;100.00
72157;BME280;60035;52.122;5.406;2023-04-07T10:03:09;101910.28;;;10.15;100.00
72157;BME280;60035;52.122;5.406;2023-04-07T10:05:37;101911.13;;;10.17;100.00
72157;BME280;60035;52.122;5.406;2023-04-07T10:08:05;101916.22;;;10.19;100.00
72157;BME280;60035;52.122;5.406;2023-04-07T10:10:34;101918.72;;;10.25;100.00
72157;BME280;60035;52.122;5.406;2023-04-07T10:13:03;101914.34;;;10.33;100.00
72157;BME280;60035;52.122;5.406;2023-04-07T10:15:30;101913.53;;;10.30;100.00
72157;BME280;60035;52.122;5.406;2023-04-07T10:17:57;101919.50;;;10.29;100.00
72157;BME280;60035;52.122;5.406;2023-04-07T10:20:25;101920.41;;;10.25;100.00
72157;BME280;60035;52.122;5.406;2023-04-07T10:22:54;101922.16;;;10.23;100.00
72157;BME280;60035;52.122;5.406;2023-04-07T10:25:24;101924.72;;;10.20;100.00
72157;BME280;60035;52.122;5.406;2023-04-07T10:27:54;101934.09;;;10.22;100.00
72157;BME280;60035;52.122;5.406;2023-04-07T10:30:28;101939.19;;;10.24;100.00
72157;BME280;60035;52.122;5.406;2023-04-07T10:32:55;101937.50;;;10.21;100.00
72157;BME280;60035;52.122;5.406;2023-04-07T10:35:22;101934.06;;;10.24;100.00
72157;BME280;60035;52.122;5.406;2023-04-07T10:40:36;101941.78;;;10.21;100.00
72157;BME280;60035;52.122;5.406;2023-04-07T10:43:04;101944.38;;;10.16;100.00
72157;BME280;60035;52.122;5.406;2023-04-07T10:48:18;101948.59;;;10.23;100.00
72157;BME280;60035;52.122;5.406;2023-04-07T10:50:45;101957.13;;;10.25;100.00
72157;BME280;60035;52.122;5.406;2023-04-07T10:53:33;101957.06;;;10.30;100.00
72157;BME280;60035;52.122;5.406;2023-04-07T10:56:03;101957.00;;;10.33;100.00
72157;BME280;60035;52.122;5.406;2023-04-07T10:58:32;101957.09;;;10.28;100.00
72157;BME280;60035;52.122;5.406;2023-04-07T11:03:27;101959.81;;;10.11;100.00
72157;BME280;60035;52.122;5.406;2023-04-07T11:06:06;101956.50;;;10.02;100.00
72157;BME280;60035;52.122;5.406;2023-04-07T11:08:40;101964.19;;;9.97;100.00
72157;BME280;60035;52.122;5.406;2023-04-07T11:11:09;101962.56;;;9.90;100.00
72157;BME280;60035;52.122;5.406;2023-04-07T11:13:47;101966.00;;;9.87;100.00
72157;BME280;60035;52.122;5.406;2023-04-07T11:16:16;101963.44;;;9.84;100.00
72157;BME280;60035;52.122;5.406;2023-04-07T11:18:45;101968.56;;;9.86;100.00
72157;BME280;60035;52.122;5.406;2023-04-07T11:21:17;101969.44;;;9.81;100.00
72157;BME280;60035;52.122;5.406;2023-04-07T11:23:46;101967.75;;;9.80;100.00
72157;BME280;60035;52.122;5.406;2023-04-07T11:26:14;101972.00;;;9.81;100.00
72157;BME280;60035;52.122;5.406;2023-04-07T11:28:45;101977.06;;;9.88;100.00
72157;BME280;60035;52.122;5.406;2023-04-07T11:31:21;101971.88;;;9.97;100.00
72157;BME280;60035;52.122;5.406;2023-04-07T11:33:56;101970.06;;;10.07;100.00
72157;BME280;60035;52.122;5.406;2023-04-07T11:36:31;101972.59;;;10.11;100.00
72157;BME280;60035;52.122;5.406;2023-04-07T11:39:00;101972.50;;;10.22;100.00
72157;BME280;60035;52.122;5.406;2023-04-07T11:41:30;101981.03;;;10.23;100.00
72157;BME280;60035;52.122;5.406;2023-04-07T11:44:09;101977.66;;;10.19;100.00
72157;BME280;60035;52.122;5.406;2023-04-07T11:46:36;101979.34;;;10.22;100.00
72157;BME280;60035;52.122;5.406;2023-04-07T11:49:11;101980.97;;;10.27;100.00
72157;BME280;60035;52.122;5.406;2023-04-07T11:51:41;101975.81;;;10.32;100.00
72157;BME280;60035;52.122;5.406;2023-04-07T11:54:09;101986.03;;;10.33;100.00
72157;BME280;60035;52.122;5.406;2023-04-07T11:56:44;101981.84;;;10.26;100.00
72157;BME280;60035;52.122;5.406;2023-04-07T11:59:22;101987.81;;;10.24;100.00
72157;BME280;60035;52.122;5.406;2023-04-07T12:01:50;101994.72;;;10.20;100.00
72157;BME280;60035;52.122;5.406;2023-04-07T12:04:21;101993.03;;;10.14;100.00
72157;BME280;60035;52.122;5.406;2023-04-07T12:06:48;101988.69;;;10.21;100.00
72157;BME280;60035;52.122;5.406;2023-04-07T12:09:30;101995.53;;;10.22;100.00
72157;BME280;60035;52.122;5.406;2023-04-07T12:11:58;102004.91;;;10.23;100.00
72157;BME280;60035;52.122;5.406;2023-04-07T12:14:25;101998.97;;;10.23;100.00
72157;BME280;60035;52.122;5.406;2023-04-07T12:16:54;102008.34;;;10.21;100.00
72157;BME280;60035;52.122;5.406;2023-04-07T12:19:23;102011.72;;;10.26;100.00
72157;BME280;60035;52.122;5.406;2023-04-07T12:21:49;102003.97;;;10.30;100.00
72157;BME280;60035;52.122;5.406;2023-04-07T12:24:16;102009.03;;;10.40;100.00
72157;BME280;60035;52.122;5.406;2023-04-07T12:26:43;102005.59;;;10.45;100.00
72157;BME280;60035;52.122;5.406;2023-04-07T12:29:10;102017.50;;;10.49;100.00
72157;BME280;60035;52.122;5.406;2023-04-07T12:31:36;102020.00;;;10.56;100.00
72157;BME280;60035;52.122;5.406;2023-04-07T12:34:03;102018.31;;;10.53;100.00
72157;BME280;60035;52.122;5.406;2023-04-07T12:36:29;102018.31;;;10.55;100.00
72157;BME280;60035;52.122;5.406;2023-04-07T12:38:56;102021.66;;;10.60;100.00
72157;BME280;60035;52.122;5.406;2023-04-07T12:41:24;102022.41;;;10.70;100.00
72157;BME280;60035;52.122;5.406;2023-04-07T12:43:51;102019.75;;;10.77;100.00
72157;BME280;60035;52.122;5.406;2023-04-07T12:46:18;102028.22;;;10.84;100.00
72157;BME280;60035;52.122;5.406;2023-04-07T12:48:46;102025.63;;;10.87;100.00
72157;BME280;60035;52.122;5.406;2023-04-07T12:51:13;102023.09;;;10.84;100.00
72157;BME280;60035;52.122;5.406;2023-04-07T12:53:40;102029.91;;;10.87;100.00
72157;BME280;60035;52.122;5.406;2023-04-07T12:56:06;102024.84;;;10.80;100.00
72157;BME280;60035;52.122;5.406;2023-04-07T12:58:33;102029.13;;;10.77;100.00
72157;BME280;60035;52.122;5.406;2023-04-07T13:00:59;102036.06;;;10.72;99.64
72157;BME280;60035;52.122;5.406;2023-04-07T13:03:26;102036.06;;;10.69;100.00